Meadows Of Dan, Virginia
Current Conditions -  °F | °C
As of 1:55 PM on Friday 24 Oct 2014 (Local Time) from KMWK Reporting Station
Clear Clear  
Wind Chill: 67°   Ceiling: Unl
Heat Index: 67°   Visibility: 10mi
Dew Point: 42°   Wind: 6mph
Humidity: 40%   Direction: 330°NNW
Pressure: 30.03"   Gusts: NA
Location:  36.74°N, 80.39°W
Report Text: KMWK 241755Z AUTO 33005KT 10SM CLR 19/05 A3003 RMK AO2 T01930053 10193 20093
Loading
Personal Weather Stations






























Interactive Weather Map New forecast layout! Learn more

10-Day Weather Forecast

Advertisements
Track Severe Weather on mobile